Terminal Aerodrome Forecast
Issued by NWS Shreveport, LA

Home | Current Version | Previous Version | Text Only | Print | Product List | Glossary On
Versions: 1 2 3 4 5 6 7 8 9 10 11 12 13 14
000
FTUS44 KSHV 171700
TAFELD
TAF
KELD 171720Z 1718/1818 07004KT P6SM OVC150
     FM180000 05004KT P6SM VCSH OVC070
     FM180600 05005KT P6SM -RA OVC050
     FM180900 05005KT 5SM -RA BR OVC030
     FM181500 08004KT 4SM -RA BR OVC009=

USA.gov is the U.S. government's official web portal to all federal, state and local government web resources and services.